createdAt,value
2018-07-13T00:00:07.694Z,9.17
2018-07-13T00:02:36.128Z,11.07
2018-07-13T00:05:04.742Z,10.07
2018-07-13T00:07:33.321Z,16.67
2018-07-13T00:10:01.893Z,11.43
2018-07-13T00:12:30.088Z,13.27
2018-07-13T00:15:11.674Z,10.10
2018-07-13T00:17:40.279Z,12.90
2018-07-13T00:20:08.828Z,15.33
2018-07-13T00:22:37.257Z,11.57
2018-07-13T00:25:05.807Z,11.30
2018-07-13T00:27:34.375Z,10.00
2018-07-13T00:30:02.872Z,10.53
2018-07-13T00:32:31.415Z,14.37
2018-07-13T00:34:59.850Z,10.77
2018-07-13T00:37:28.342Z,11.20
2018-07-13T00:39:56.819Z,13.03
2018-07-13T00:42:25.369Z,12.73
2018-07-13T00:44:53.845Z,14.30
2018-07-13T00:47:22.313Z,11.37
2018-07-13T00:49:50.827Z,11.07
2018-07-13T00:52:19.249Z,11.57
2018-07-13T00:54:47.771Z,13.90
2018-07-13T00:57:16.195Z,12.77
2018-07-13T00:59:44.676Z,14.33
2018-07-13T01:02:13.177Z,13.43
2018-07-13T01:04:41.695Z,13.37
2018-07-13T01:07:10.141Z,14.90
2018-07-13T01:09:38.575Z,17.30
2018-07-13T01:12:07.209Z,15.40
2018-07-13T01:14:35.830Z,14.00
2018-07-13T01:17:04.439Z,15.83
2018-07-13T01:19:32.893Z,15.17
2018-07-13T01:22:01.427Z,15.90
2018-07-13T01:24:30.014Z,15.97
2018-07-13T01:26:58.477Z,13.17
2018-07-13T01:29:27.055Z,14.50
2018-07-13T01:31:56.833Z,13.93
2018-07-13T01:34:25.383Z,12.20
2018-07-13T01:36:54.053Z,13.57
2018-07-13T01:39:22.556Z,14.33
2018-07-13T01:41:51.096Z,16.43
2018-07-13T01:44:19.665Z,15.77
2018-07-13T01:46:48.100Z,15.03
2018-07-13T01:49:16.526Z,13.80
2018-07-13T01:51:45.504Z,15.20
2018-07-13T01:54:13.995Z,15.00
2018-07-13T01:56:42.446Z,12.47
2018-07-13T01:59:11.010Z,18.50
2018-07-13T02:01:39.874Z,14.73
2018-07-13T02:04:08.368Z,14.20
2018-07-13T02:06:36.824Z,12.77
2018-07-13T02:09:07.554Z,13.37
2018-07-13T02:11:36.176Z,14.40
2018-07-13T02:14:05.135Z,11.53
2018-07-13T02:16:33.612Z,11.73
2018-07-13T02:19:02.084Z,13.87
2018-07-13T02:21:30.536Z,12.33
2018-07-13T02:23:59.492Z,13.93
2018-07-13T02:26:28.196Z,14.77
2018-07-13T02:28:56.768Z,14.73
2018-07-13T02:31:25.218Z,13.10
2018-07-13T02:33:53.712Z,14.47
2018-07-13T02:36:22.153Z,17.30
2018-07-13T02:38:50.614Z,19.20
2018-07-13T02:41:19.080Z,17.47
2018-07-13T02:43:47.653Z,14.03
2018-07-13T02:46:16.113Z,14.43
2018-07-13T02:48:44.561Z,16.97
2018-07-13T02:51:13.018Z,16.60
2018-07-13T02:53:41.556Z,15.70
2018-07-13T02:56:10.020Z,16.00
2018-07-13T02:58:38.458Z,18.77
2018-07-13T03:01:07.111Z,16.63
2018-07-13T03:03:36.724Z,16.00
2018-07-13T03:06:05.317Z,21.63
2018-07-13T03:08:33.833Z,19.47
2018-07-13T03:11:02.290Z,18.43
2018-07-13T03:13:30.762Z,18.73
2018-07-13T03:15:59.254Z,18.93
2018-07-13T03:18:27.705Z,21.57
2018-07-13T03:20:56.182Z,19.97
2018-07-13T03:23:24.717Z,22.53
2018-07-13T03:25:53.286Z,21.13
2018-07-13T03:28:23.496Z,20.10
2018-07-13T03:30:51.968Z,18.47
2018-07-13T03:33:20.477Z,19.13
2018-07-13T03:35:49.041Z,19.13
2018-07-13T03:38:17.606Z,19.13
2018-07-13T03:40:46.150Z,22.63
2018-07-13T03:43:14.626Z,19.90
2018-07-13T03:45:43.100Z,22.20
2018-07-13T03:48:11.819Z,21.23
2018-07-13T03:50:40.289Z,19.33
2018-07-13T03:53:08.857Z,20.77
2018-07-13T03:55:37.765Z,22.43
2018-07-13T03:58:06.319Z,18.70
2018-07-13T04:00:35.066Z,23.00
2018-07-13T04:03:03.561Z,21.43
2018-07-13T04:05:32.128Z,25.10
2018-07-13T04:08:00.640Z,20.77
2018-07-13T04:10:29.106Z,20.07
2018-07-13T04:12:58.493Z,27.33
2018-07-13T04:15:26.932Z,18.93
2018-07-13T04:17:55.540Z,23.17
2018-07-13T04:20:24.033Z,23.23
2018-07-13T04:22:52.635Z,24.33
2018-07-13T04:25:21.315Z,20.17
2018-07-13T04:27:50.053Z,20.70
2018-07-13T04:30:18.581Z,23.47
2018-07-13T04:32:47.058Z,22.13
2018-07-13T04:35:15.506Z,27.43
2018-07-13T04:37:43.959Z,21.57
2018-07-13T04:40:12.545Z,23.40
2018-07-13T04:42:41.055Z,21.47
2018-07-13T04:45:09.599Z,22.63
2018-07-13T04:47:38.265Z,24.90
2018-07-13T04:50:06.966Z,26.17
2018-07-13T04:52:35.604Z,22.23
2018-07-13T04:55:04.302Z,25.23
2018-07-13T04:57:32.813Z,23.90
2018-07-13T05:00:01.367Z,23.83
2018-07-13T05:02:29.966Z,22.67
2018-07-13T05:04:58.511Z,26.60
2018-07-13T05:07:27.009Z,21.97
2018-07-13T05:09:55.460Z,23.73
2018-07-13T05:12:23.934Z,22.93
2018-07-13T05:14:52.098Z,21.80
2018-07-13T05:17:20.634Z,25.03
2018-07-13T05:19:50.516Z,21.63
2018-07-13T05:22:19.238Z,25.03
2018-07-13T05:24:47.802Z,23.80
2018-07-13T05:27:16.359Z,22.30
2018-07-13T05:29:45.100Z,23.90
2018-07-13T05:32:13.633Z,22.77
2018-07-13T05:34:43.318Z,24.40
2018-07-13T05:37:11.884Z,24.00
2018-07-13T05:39:40.484Z,22.73
2018-07-13T05:42:09.018Z,24.70
2018-07-13T05:44:37.630Z,21.40
2018-07-13T05:47:06.267Z,23.07
2018-07-13T05:49:35.021Z,23.53
2018-07-13T05:52:03.578Z,20.53
2018-07-13T05:54:32.147Z,19.07
2018-07-13T05:57:00.749Z,21.33
2018-07-13T05:59:29.348Z,19.43
2018-07-13T06:01:57.889Z,22.93
2018-07-13T06:04:26.077Z,22.10
2018-07-13T06:06:54.979Z,19.77
2018-07-13T06:09:23.597Z,19.10
2018-07-13T06:11:52.121Z,17.80
2018-07-13T06:14:20.631Z,17.37
2018-07-13T06:16:49.233Z,16.93
2018-07-13T06:19:17.817Z,20.83
2018-07-13T06:21:46.359Z,18.23
2018-07-13T06:24:15.082Z,18.10
2018-07-13T06:26:43.583Z,17.60
2018-07-13T06:29:12.104Z,18.73
2018-07-13T06:31:40.633Z,21.07
2018-07-13T06:34:09.169Z,16.93
2018-07-13T06:36:37.797Z,17.00
2018-07-13T06:39:12.836Z,17.03
2018-07-13T06:41:41.404Z,15.97
2018-07-13T06:44:09.871Z,16.30
2018-07-13T06:46:43.288Z,15.57
2018-07-13T06:49:11.960Z,16.63
2018-07-13T06:51:40.514Z,18.57
2018-07-13T06:54:09.530Z,19.00
2018-07-13T06:56:38.224Z,14.67
2018-07-13T06:59:15.079Z,15.00
2018-07-13T07:01:44.322Z,18.37
2018-07-13T07:04:32.432Z,15.70
2018-07-13T07:07:06.358Z,18.27
2018-07-13T07:09:34.968Z,14.10
2018-07-13T07:12:16.636Z,16.97
2018-07-13T07:14:45.247Z,18.07
2018-07-13T07:17:13.818Z,15.20
2018-07-13T07:19:42.323Z,14.50
2018-07-13T07:22:12.604Z,16.40
2018-07-13T07:24:41.207Z,18.83
2018-07-13T07:27:09.807Z,15.80
2018-07-13T07:29:38.311Z,13.73
2018-07-13T07:32:06.864Z,18.27
2018-07-13T07:34:35.330Z,11.70
2018-07-13T07:37:03.829Z,15.33
2018-07-13T07:39:33.561Z,14.30
2018-07-13T07:42:02.095Z,15.13
2018-07-13T07:44:30.692Z,11.87
2018-07-13T07:46:58.884Z,10.47
2018-07-13T07:49:27.334Z,13.23
2018-07-13T07:51:55.958Z,12.07
2018-07-13T07:54:24.411Z,13.47
2018-07-13T07:56:52.889Z,13.43
2018-07-13T07:59:21.354Z,9.57
2018-07-13T08:01:49.902Z,11.73
2018-07-13T08:04:18.692Z,10.57
2018-07-13T08:06:47.384Z,8.43
2018-07-13T08:09:16.120Z,12.77
2018-07-13T08:11:44.624Z,14.70
2018-07-13T08:14:13.644Z,13.37
2018-07-13T08:16:41.770Z,9.73
2018-07-13T08:19:10.374Z,12.73
2018-07-13T08:21:42.438Z,7.97
2018-07-13T08:24:11.235Z,8.67
2018-07-13T08:26:40.215Z,9.20
2018-07-13T08:29:09.227Z,8.07
2018-07-13T08:31:37.810Z,9.77
2018-07-13T08:34:06.389Z,7.40
2018-07-13T08:36:34.951Z,4.77
2018-07-13T08:39:03.646Z,8.63
2018-07-13T08:41:32.236Z,5.80
2018-07-13T08:44:00.783Z,7.83
2018-07-13T08:46:29.530Z,6.97
2018-07-13T08:48:58.093Z,7.03
2018-07-13T08:51:26.775Z,11.50
2018-07-13T08:53:55.226Z,8.50
2018-07-13T08:56:23.749Z,6.03
2018-07-13T08:58:52.354Z,11.43
2018-07-13T09:01:21.032Z,9.10
2018-07-13T09:03:49.530Z,9.77
2018-07-13T09:06:18.227Z,6.33
2018-07-13T09:08:46.789Z,8.80
2018-07-13T09:11:15.248Z,6.97
2018-07-13T09:13:43.779Z,10.43
2018-07-13T09:16:12.266Z,5.23
2018-07-13T09:18:40.833Z,8.17
2018-07-13T09:21:09.303Z,9.43
2018-07-13T09:23:37.771Z,9.17
2018-07-13T09:26:06.318Z,6.30
2018-07-13T09:28:34.813Z,5.40
2018-07-13T09:31:03.271Z,6.17
2018-07-13T09:33:31.717Z,7.43
2018-07-13T09:36:00.326Z,5.47
2018-07-13T09:38:28.901Z,6.80
2018-07-13T09:40:57.294Z,6.23
2018-07-13T09:43:25.772Z,6.93
2018-07-13T09:45:54.397Z,5.90
2018-07-13T09:48:22.592Z,4.63
2018-07-13T09:50:51.108Z,8.13
2018-07-13T09:53:19.772Z,6.87
2018-07-13T09:55:48.362Z,5.43
2018-07-13T09:58:21.936Z,7.53
2018-07-13T10:00:55.804Z,5.10
2018-07-13T10:03:24.278Z,4.80
2018-07-13T10:05:52.762Z,6.33
2018-07-13T10:08:21.422Z,5.50
2018-07-13T10:10:49.906Z,5.40
2018-07-13T10:13:18.471Z,4.20
2018-07-13T10:15:46.632Z,7.20
2018-07-13T10:18:15.133Z,8.37
2018-07-13T10:20:43.693Z,4.23
2018-07-13T10:23:12.416Z,6.97
2018-07-13T10:25:41.042Z,6.60
2018-07-13T10:28:09.570Z,6.60
2018-07-13T10:30:39.490Z,4.27
2018-07-13T10:33:08.387Z,6.13
2018-07-13T10:35:39.330Z,7.43
2018-07-13T10:38:07.878Z,4.87
2018-07-13T10:40:36.607Z,5.70
2018-07-13T10:43:05.203Z,5.63
2018-07-13T10:45:34.203Z,5.37
2018-07-13T10:48:02.759Z,4.97
2018-07-13T10:50:31.222Z,4.07
2018-07-13T10:52:59.769Z,4.87
2018-07-13T10:55:28.253Z,3.57
2018-07-13T10:57:56.763Z,6.70
2018-07-13T11:00:25.269Z,5.63
2018-07-13T11:02:53.816Z,4.60
2018-07-13T11:05:22.538Z,4.63
2018-07-13T11:07:51.018Z,4.83
2018-07-13T11:10:19.549Z,3.37
2018-07-13T11:12:48.211Z,5.80
2018-07-13T11:15:16.682Z,5.40
2018-07-13T11:17:45.143Z,3.57
2018-07-13T11:20:13.607Z,8.60
2018-07-13T11:22:42.190Z,3.83
2018-07-13T11:25:10.678Z,4.93
2018-07-13T11:27:39.158Z,6.83
2018-07-13T11:30:09.478Z,3.43
2018-07-13T11:32:37.952Z,3.43
2018-07-13T11:35:06.518Z,6.60
2018-07-13T11:37:35.946Z,5.13
2018-07-13T11:40:04.568Z,5.07
2018-07-13T11:42:33.059Z,3.67
2018-07-13T11:45:01.580Z,5.47
2018-07-13T11:47:30.338Z,5.97
2018-07-13T11:49:58.820Z,3.03
2018-07-13T11:52:27.514Z,3.80
2018-07-13T11:54:56.295Z,4.70
2018-07-13T11:57:24.968Z,5.63
2018-07-13T11:59:53.640Z,4.83
2018-07-13T12:02:33.076Z,9.13
2018-07-13T12:05:04.238Z,4.43
2018-07-13T12:07:32.818Z,3.97
2018-07-13T12:10:01.329Z,3.80
2018-07-13T12:12:34.879Z,5.83
2018-07-13T12:15:03.388Z,4.90
2018-07-13T12:17:31.988Z,5.83
2018-07-13T12:20:00.449Z,3.80
2018-07-13T12:22:29.051Z,3.13
2018-07-13T12:24:57.777Z,3.80
2018-07-13T12:27:26.441Z,4.90
2018-07-13T12:29:54.942Z,2.43
2018-07-13T12:32:23.712Z,6.33
2018-07-13T12:34:52.149Z,4.93
2018-07-13T12:37:20.313Z,6.73
2018-07-13T12:39:48.988Z,5.13
2018-07-13T12:42:17.732Z,4.67
2018-07-13T12:44:46.164Z,3.37
2018-07-13T12:47:14.627Z,5.80
2018-07-13T12:49:43.172Z,5.50
2018-07-13T12:52:12.060Z,5.83
2018-07-13T12:54:40.669Z,6.53
2018-07-13T12:57:09.116Z,5.30
2018-07-13T12:59:37.564Z,5.83
2018-07-13T13:02:06.048Z,3.83
2018-07-13T13:04:34.672Z,3.17
2018-07-13T13:07:03.153Z,5.70
2018-07-13T13:09:31.719Z,7.47
2018-07-13T13:12:00.194Z,5.67
2018-07-13T13:14:28.654Z,6.33
2018-07-13T13:16:57.160Z,4.97
2018-07-13T13:19:25.651Z,4.77
2018-07-13T13:21:53.968Z,5.37
2018-07-13T13:24:22.377Z,3.57
2018-07-13T13:26:50.884Z,3.37
2018-07-13T13:29:19.383Z,4.87
2018-07-13T13:31:47.864Z,3.70
2018-07-13T13:34:16.433Z,6.10
2018-07-13T13:36:45.034Z,5.00
2018-07-13T13:39:13.497Z,4.60
2018-07-13T13:41:42.104Z,4.40
2018-07-13T13:44:10.701Z,6.20
2018-07-13T13:46:39.272Z,7.63
2018-07-13T13:49:07.865Z,4.73
2018-07-13T13:51:36.425Z,6.33
2018-07-13T13:54:04.895Z,4.57
2018-07-13T13:56:33.382Z,5.53
2018-07-13T13:59:01.843Z,5.23
2018-07-13T14:01:30.301Z,6.13
2018-07-13T14:03:58.828Z,4.67
2018-07-13T14:06:27.317Z,6.37
2018-07-13T14:08:56.086Z,6.43
2018-07-13T14:11:24.500Z,3.83
2018-07-13T14:13:52.990Z,5.33
2018-07-13T14:16:21.439Z,6.47
2018-07-13T14:18:49.954Z,3.40
2018-07-13T14:21:18.418Z,5.13
2018-07-13T14:23:46.623Z,6.77
2018-07-13T14:26:15.189Z,5.10
2018-07-13T14:28:43.757Z,4.17
2018-07-13T14:31:12.239Z,4.17
2018-07-13T14:33:40.736Z,5.53
2018-07-13T14:36:09.316Z,4.10
2018-07-13T14:38:37.477Z,6.03
2018-07-13T14:41:06.305Z,3.63
2018-07-13T14:43:34.828Z,5.00
2018-07-13T14:46:03.659Z,6.33
2018-07-13T14:48:32.331Z,7.30
2018-07-13T14:51:00.938Z,5.20
2018-07-13T14:53:29.482Z,5.87
2018-07-13T14:55:58.235Z,6.53
2018-07-13T14:58:26.790Z,5.07
2018-07-13T15:00:55.319Z,7.13
2018-07-13T15:03:23.992Z,5.70
2018-07-13T15:05:52.550Z,6.00
2018-07-13T15:08:21.012Z,4.97
2018-07-13T15:10:49.488Z,4.63
2018-07-13T15:13:17.914Z,4.63
2018-07-13T15:15:46.448Z,4.80
2018-07-13T15:18:15.082Z,3.90
2018-07-13T15:20:44.228Z,4.87
2018-07-13T15:23:12.713Z,5.70
2018-07-13T15:25:41.188Z,6.43
2018-07-13T15:28:09.643Z,4.73
2018-07-13T15:30:38.216Z,4.63
2018-07-13T15:33:06.717Z,7.40
2018-07-13T15:35:35.240Z,4.90
2018-07-13T15:38:03.791Z,4.97
2018-07-13T15:40:32.394Z,5.70
2018-07-13T15:43:00.854Z,3.73
2018-07-13T15:45:29.344Z,3.60
2018-07-13T15:47:57.818Z,7.60
2018-07-13T15:50:26.002Z,5.10
2018-07-13T15:52:54.518Z,8.23
2018-07-13T15:55:27.440Z,5.97
2018-07-13T15:57:56.023Z,6.87
2018-07-13T16:00:24.546Z,4.37
2018-07-13T16:02:53.046Z,5.37
2018-07-13T16:05:21.576Z,5.03
2018-07-13T16:07:50.342Z,5.00
2018-07-13T16:10:18.832Z,3.87
2018-07-13T16:12:47.292Z,5.47
2018-07-13T16:15:15.536Z,5.00
2018-07-13T16:17:44.124Z,4.83
2018-07-13T16:20:12.609Z,2.93
2018-07-13T16:22:41.158Z,5.23
2018-07-13T16:25:09.650Z,5.53
2018-07-13T16:27:38.131Z,4.73
2018-07-13T16:30:06.901Z,4.07
2018-07-13T16:32:36.209Z,4.17
2018-07-13T16:35:05.039Z,2.83
2018-07-13T16:37:33.270Z,5.00
2018-07-13T16:40:01.746Z,5.10
2018-07-13T16:42:30.652Z,5.80
2018-07-13T16:44:59.189Z,4.50
2018-07-13T16:47:27.664Z,4.47
2018-07-13T16:49:56.105Z,4.07
2018-07-13T16:52:24.584Z,4.20
2018-07-13T16:54:53.024Z,4.77
2018-07-13T16:57:21.145Z,4.20
2018-07-13T16:59:49.736Z,4.87
2018-07-13T17:02:18.243Z,5.30
2018-07-13T17:04:46.811Z,4.10
2018-07-13T17:07:15.402Z,5.10
2018-07-13T17:09:43.881Z,4.83
2018-07-13T17:12:12.347Z,5.13
2018-07-13T17:14:40.810Z,4.67
2018-07-13T17:17:09.367Z,4.87
2018-07-13T17:19:37.870Z,4.63
2018-07-13T17:22:06.166Z,4.40
2018-07-13T17:24:34.730Z,2.87
2018-07-13T17:27:03.407Z,5.47
2018-07-13T17:29:31.865Z,3.93
2018-07-13T17:32:00.082Z,6.57
2018-07-13T17:34:28.679Z,4.70
2018-07-13T17:36:57.134Z,10.43
2018-07-13T17:39:25.639Z,6.27
2018-07-13T17:41:54.106Z,3.90
2018-07-13T17:44:22.674Z,4.20
2018-07-13T17:46:51.144Z,4.00
2018-07-13T17:49:19.803Z,4.53
2018-07-13T17:51:48.376Z,4.57
2018-07-13T17:54:16.874Z,6.00
2018-07-13T17:56:45.362Z,4.17
2018-07-13T17:59:13.831Z,4.53
2018-07-13T18:01:42.796Z,5.50
2018-07-13T18:04:11.275Z,5.90
2018-07-13T18:06:39.949Z,3.80
2018-07-13T18:09:09.061Z,5.00
2018-07-13T18:11:37.532Z,3.97
2018-07-13T18:14:06.020Z,4.67
2018-07-13T18:16:34.571Z,6.07
2018-07-13T18:19:03.073Z,5.83
2018-07-13T18:21:31.544Z,4.03
2018-07-13T18:24:00.122Z,5.77
2018-07-13T18:26:28.588Z,6.53
2018-07-13T18:28:57.079Z,6.43
2018-07-13T18:31:25.619Z,5.67
2018-07-13T18:33:54.161Z,6.77
2018-07-13T18:36:22.405Z,5.40
2018-07-13T18:38:50.956Z,4.03
2018-07-13T18:41:19.409Z,4.93
2018-07-13T18:43:47.892Z,5.30
2018-07-13T18:46:16.348Z,4.13
2018-07-13T18:48:44.829Z,5.17
2018-07-13T18:51:13.299Z,5.47
2018-07-13T18:53:41.763Z,6.33
2018-07-13T18:56:10.353Z,6.63
2018-07-13T18:58:38.859Z,5.93
2018-07-13T19:01:07.452Z,3.60
2018-07-13T19:03:35.892Z,6.10
2018-07-13T19:06:04.452Z,5.43
2018-07-13T19:08:32.963Z,6.27
2018-07-13T19:11:01.415Z,8.33
2018-07-13T19:13:29.940Z,6.90
2018-07-13T19:15:58.366Z,6.73
2018-07-13T19:18:26.812Z,3.47
2018-07-13T19:20:55.313Z,7.10
2018-07-13T19:23:23.464Z,5.47
2018-07-13T19:25:51.905Z,4.60
2018-07-13T19:28:20.361Z,7.70
2018-07-13T19:30:49.038Z,9.67
2018-07-13T19:33:17.517Z,7.97
2018-07-13T19:35:46.394Z,8.10
2018-07-13T19:38:15.007Z,12.43
2018-07-13T19:40:43.565Z,9.30
2018-07-13T19:43:12.029Z,9.00
2018-07-13T19:45:40.547Z,8.45
2018-07-13T19:48:09.055Z,9.83
2018-07-13T19:50:37.592Z,9.50
2018-07-13T19:53:06.300Z,6.87
2018-07-13T19:55:34.920Z,6.70
2018-07-13T19:58:03.452Z,7.50
2018-07-13T20:00:31.898Z,7.60
2018-07-13T20:03:00.522Z,10.40
2018-07-13T20:05:29.013Z,10.57
2018-07-13T20:07:57.535Z,10.20
2018-07-13T20:10:26.094Z,7.00
2018-07-13T20:12:54.566Z,9.97
2018-07-13T20:15:23.198Z,9.37
2018-07-13T20:17:51.624Z,7.50
2018-07-13T20:20:19.780Z,9.00
2018-07-13T20:22:49.982Z,8.13
2018-07-13T20:25:18.552Z,9.20
2018-07-13T20:27:47.060Z,8.33
2018-07-13T20:30:15.661Z,9.70
2018-07-13T20:32:44.237Z,11.03
2018-07-13T20:35:12.708Z,8.50
2018-07-13T20:37:41.256Z,11.53
2018-07-13T20:40:09.739Z,8.37
2018-07-13T20:42:38.227Z,10.60
2018-07-13T20:45:06.780Z,11.83
2018-07-13T20:47:35.408Z,7.70
2018-07-13T20:50:03.901Z,11.70
2018-07-13T20:52:32.508Z,8.27
2018-07-13T20:55:00.921Z,8.37
2018-07-13T20:57:29.383Z,7.87
2018-07-13T20:59:57.649Z,8.03
2018-07-13T21:02:26.072Z,9.27
2018-07-13T21:04:54.758Z,10.57
2018-07-13T21:07:23.259Z,10.87
2018-07-13T21:09:51.743Z,8.07
2018-07-13T21:12:20.232Z,9.47
2018-07-13T21:14:48.703Z,13.43
2018-07-13T21:17:17.236Z,8.77
2018-07-13T21:19:45.713Z,9.03
2018-07-13T21:22:14.291Z,6.63
2018-07-13T21:24:42.869Z,10.33
2018-07-13T21:27:11.452Z,12.97
2018-07-13T21:29:39.931Z,9.60
2018-07-13T21:32:08.491Z,10.13
2018-07-13T21:34:36.949Z,9.87
2018-07-13T21:37:05.475Z,10.70
2018-07-13T21:39:33.939Z,9.27
2018-07-13T21:42:02.453Z,14.67
2018-07-13T21:44:30.927Z,12.57
2018-07-13T21:46:59.413Z,9.90
2018-07-13T21:49:28.066Z,11.53
2018-07-13T21:51:56.611Z,11.57
2018-07-13T21:54:25.124Z,10.90
2018-07-13T21:56:53.705Z,13.93
2018-07-13T21:59:23.376Z,9.10
2018-07-13T22:01:51.881Z,8.87
2018-07-13T22:04:20.489Z,13.80
2018-07-13T22:06:48.955Z,10.40
2018-07-13T22:09:17.949Z,12.20
2018-07-13T22:11:46.459Z,8.77
2018-07-13T22:14:15.067Z,9.67
2018-07-13T22:16:43.504Z,15.13
2018-07-13T22:19:12.070Z,12.43
2018-07-13T22:21:40.542Z,9.87
2018-07-13T22:24:09.160Z,8.90
2018-07-13T22:26:37.669Z,11.17
2018-07-13T22:29:06.236Z,9.07
2018-07-13T22:31:34.680Z,10.63
2018-07-13T22:34:02.832Z,13.77
2018-07-13T22:36:31.588Z,11.17
2018-07-13T22:39:00.039Z,10.67
2018-07-13T22:41:28.560Z,10.97
2018-07-13T22:43:57.036Z,9.30
2018-07-13T22:46:25.486Z,9.30
2018-07-13T22:48:53.957Z,9.80
2018-07-13T22:51:22.481Z,12.20
2018-07-13T22:53:51.055Z,12.50
2018-07-13T22:56:19.649Z,11.40
2018-07-13T22:58:48.439Z,10.73
2018-07-13T23:01:17.010Z,13.93
2018-07-13T23:03:45.434Z,12.70
2018-07-13T23:06:13.896Z,10.13
2018-07-13T23:08:42.443Z,11.17
2018-07-13T23:11:11.038Z,12.90
2018-07-13T23:13:39.616Z,11.50
2018-07-13T23:16:08.060Z,9.57
2018-07-13T23:18:36.502Z,12.43
2018-07-13T23:21:05.108Z,9.00
2018-07-13T23:23:33.522Z,12.80
2018-07-13T23:26:02.088Z,9.63
2018-07-13T23:28:30.542Z,11.70
2018-07-13T23:30:58.998Z,10.43
2018-07-13T23:33:27.494Z,9.73
2018-07-13T23:35:56.066Z,10.70
2018-07-13T23:38:24.587Z,10.57
2018-07-13T23:40:53.037Z,14.10
2018-07-13T23:43:21.620Z,10.63
2018-07-13T23:45:50.081Z,9.60
2018-07-13T23:48:18.594Z,9.57
2018-07-13T23:50:47.055Z,10.47
2018-07-13T23:53:15.497Z,9.73
2018-07-13T23:55:45.149Z,9.70
2018-07-13T23:58:13.641Z,10.80
